createdAt,value
2017-07-02T00:01:07.525Z,100905.92
2017-07-02T00:03:33.933Z,100908.26
2017-07-02T00:06:00.297Z,100906.12
2017-07-02T00:08:26.681Z,100911.27
2017-07-02T00:10:53.073Z,100901.11
2017-07-02T00:13:19.438Z,100910.30
2017-07-02T00:15:45.794Z,100906.56
2017-07-02T00:18:12.237Z,100907.09
2017-07-02T00:20:38.624Z,100897.59
2017-07-02T00:23:04.984Z,100905.54
2017-07-02T00:25:31.335Z,100907.44
2017-07-02T00:27:57.710Z,100907.34
2017-07-02T00:30:24.185Z,100910.05
2017-07-02T00:32:50.546Z,100908.20
2017-07-02T00:35:16.908Z,100903.77
2017-07-02T00:37:43.255Z,100907.19
2017-07-02T00:40:09.668Z,100902.36
2017-07-02T00:42:36.115Z,100900.52
2017-07-02T00:45:02.736Z,100890.80
2017-07-02T00:47:29.564Z,100895.52
2017-07-02T00:49:55.892Z,100893.00
2017-07-02T00:52:22.249Z,100899.06
2017-07-02T00:54:48.625Z,100904.03
2017-07-02T00:57:15.000Z,100904.09
2017-07-02T00:59:41.373Z,100905.64
2017-07-02T01:02:07.772Z,100904.27
2017-07-02T01:04:34.203Z,100910.95
2017-07-02T01:07:00.661Z,100913.36
2017-07-02T01:09:27.046Z,100914.59
2017-07-02T01:11:53.444Z,100914.39
2017-07-02T01:14:19.818Z,100919.00
2017-07-02T01:16:46.170Z,100918.77
2017-07-02T01:19:12.522Z,100915.52
2017-07-02T01:21:38.871Z,100910.23
2017-07-02T01:24:05.236Z,100919.94
2017-07-02T01:26:31.587Z,100914.57
2017-07-02T01:28:57.920Z,100914.03
2017-07-02T01:31:24.310Z,100911.30
2017-07-02T01:33:50.681Z,100915.41
2017-07-02T01:36:17.090Z,100912.38
2017-07-02T01:38:43.467Z,100907.33
2017-07-02T01:41:09.865Z,100915.05
2017-07-02T01:43:36.262Z,100912.86
2017-07-02T01:46:02.674Z,100918.47
2017-07-02T01:48:29.077Z,100912.13
2017-07-02T01:50:55.514Z,100909.91
2017-07-02T01:53:21.928Z,100915.41
2017-07-02T01:55:48.767Z,100917.73
2017-07-02T01:58:15.251Z,100917.20
2017-07-02T02:00:53.775Z,100919.06
2017-07-02T02:03:20.222Z,100913.58
2017-07-02T02:05:46.653Z,100915.88
2017-07-02T02:08:13.874Z,100916.17
2017-07-02T02:10:40.227Z,100915.94
2017-07-02T02:13:06.610Z,100910.28
2017-07-02T02:15:33.002Z,100912.34
2017-07-02T02:17:59.394Z,100914.69
2017-07-02T02:20:25.766Z,100914.71
2017-07-02T02:22:52.193Z,100918.09
2017-07-02T02:25:18.612Z,100915.15
2017-07-02T02:27:44.964Z,100921.70
2017-07-02T02:30:11.340Z,100916.70
2017-07-02T02:32:37.737Z,100915.77
2017-07-02T02:35:04.099Z,100919.84
2017-07-02T02:37:30.478Z,100912.16
2017-07-02T02:39:56.836Z,100914.59
2017-07-02T02:42:23.225Z,100912.97
2017-07-02T02:44:49.606Z,100914.32
2017-07-02T02:47:15.958Z,100915.77
2017-07-02T02:49:42.316Z,100914.67
2017-07-02T02:52:08.724Z,100916.59
2017-07-02T02:54:35.123Z,100918.55
2017-07-02T02:57:01.510Z,100918.86
2017-07-02T02:59:27.901Z,100920.05
2017-07-02T03:01:54.285Z,100921.93
2017-07-02T03:04:20.643Z,100913.03
2017-07-02T03:06:47.019Z,100916.95
2017-07-02T03:09:13.389Z,100922.63
2017-07-02T03:11:39.761Z,100914.25
2017-07-02T03:14:06.116Z,100912.19
2017-07-02T03:16:32.470Z,100910.16
2017-07-02T03:18:58.904Z,100911.46
2017-07-02T03:21:25.262Z,100913.70
2017-07-02T03:23:51.646Z,100920.47
2017-07-02T03:26:18.006Z,100913.66
2017-07-02T03:28:44.371Z,100915.25
2017-07-02T03:31:10.722Z,100914.64
2017-07-02T03:33:37.096Z,100913.33
2017-07-02T03:36:03.480Z,100915.84
2017-07-02T03:38:29.878Z,100911.47
2017-07-02T03:40:59.659Z,100918.50
2017-07-02T03:43:26.052Z,100922.84
2017-07-02T03:45:52.432Z,100922.74
2017-07-02T03:48:18.818Z,100926.55
2017-07-02T03:50:45.204Z,100927.73
2017-07-02T03:53:11.586Z,100929.34
2017-07-02T03:55:37.946Z,100928.78
2017-07-02T03:58:04.334Z,100936.88
2017-07-02T04:00:30.677Z,100937.02
2017-07-02T04:02:57.047Z,100935.61
2017-07-02T04:05:23.414Z,100932.81
2017-07-02T04:07:49.816Z,100939.47
2017-07-02T04:10:16.189Z,100943.61
2017-07-02T04:12:42.553Z,100940.77
2017-07-02T04:15:08.981Z,100942.02
2017-07-02T04:17:35.323Z,100943.64
2017-07-02T04:20:01.714Z,100940.73
2017-07-02T04:22:28.093Z,100941.59
2017-07-02T04:24:54.479Z,100941.63
2017-07-02T04:27:20.872Z,100944.42
2017-07-02T04:29:47.225Z,100950.06
2017-07-02T04:32:13.598Z,100948.56
2017-07-02T04:34:39.955Z,100942.92
2017-07-02T04:37:06.337Z,100937.96
2017-07-02T04:39:32.702Z,100939.06
2017-07-02T04:41:59.102Z,100939.92
2017-07-02T04:44:25.524Z,100935.25
2017-07-02T04:46:51.902Z,100940.88
2017-07-02T04:49:18.264Z,100937.77
2017-07-02T04:51:44.625Z,100941.14
2017-07-02T04:54:10.979Z,100939.00
2017-07-02T04:56:37.339Z,100935.95
2017-07-02T04:59:03.693Z,100943.38
2017-07-02T05:01:30.055Z,100942.33
2017-07-02T05:03:56.407Z,100943.61
2017-07-02T05:06:22.776Z,100937.31
2017-07-02T05:08:49.175Z,100944.66
2017-07-02T05:11:15.536Z,100937.12
2017-07-02T05:13:41.889Z,100937.75
2017-07-02T05:16:08.263Z,100941.63
2017-07-02T05:18:34.634Z,100941.64
2017-07-02T05:21:01.017Z,100943.30
2017-07-02T05:23:27.434Z,100935.25
2017-07-02T05:25:53.789Z,100932.98
2017-07-02T05:28:20.159Z,100930.80
2017-07-02T05:30:46.568Z,100935.56
2017-07-02T05:33:13.002Z,100937.41
2017-07-02T05:35:39.348Z,100945.41
2017-07-02T05:38:05.738Z,100939.88
2017-07-02T05:40:32.142Z,100939.81
2017-07-02T05:42:58.580Z,100935.17
2017-07-02T05:45:24.963Z,100934.77
2017-07-02T05:47:51.340Z,100939.64
2017-07-02T05:50:17.771Z,100940.79
2017-07-02T05:52:44.127Z,100938.47
2017-07-02T05:55:10.535Z,100947.59
2017-07-02T05:57:36.929Z,100946.41
2017-07-02T06:00:03.340Z,100943.73
2017-07-02T06:02:29.751Z,100951.55
2017-07-02T06:04:56.138Z,100947.41
2017-07-02T06:07:22.490Z,100949.98
2017-07-02T06:09:48.869Z,100950.89
2017-07-02T06:12:15.234Z,100944.59
2017-07-02T06:14:41.597Z,100952.23
2017-07-02T06:17:07.986Z,100952.08
2017-07-02T06:19:34.357Z,100950.19
2017-07-02T06:22:00.729Z,100951.36
2017-07-02T06:24:27.975Z,100959.82
2017-07-02T06:26:54.336Z,100958.77
2017-07-02T06:29:20.770Z,100962.78
2017-07-02T06:31:47.123Z,100962.74
2017-07-02T06:34:13.469Z,100968.44
2017-07-02T06:36:39.831Z,100963.67
2017-07-02T06:39:06.192Z,100965.61
2017-07-02T06:41:40.499Z,100964.33
2017-07-02T06:46:51.939Z,100968.00
2017-07-02T06:49:18.320Z,100965.41
2017-07-02T06:51:44.691Z,100968.50
2017-07-02T06:54:11.065Z,100967.64
2017-07-02T06:56:37.448Z,100972.14
2017-07-02T06:59:03.803Z,100974.95
2017-07-02T07:01:30.190Z,100969.18
2017-07-02T07:03:56.558Z,100974.42
2017-07-02T07:06:22.939Z,100970.57
2017-07-02T07:08:49.316Z,100974.05
2017-07-02T07:11:15.706Z,100976.71
2017-07-02T07:13:42.082Z,100975.56
2017-07-02T07:16:08.439Z,100977.20
2017-07-02T07:18:34.809Z,100972.51
2017-07-02T07:21:01.149Z,100973.42
2017-07-02T07:23:28.452Z,100979.30
2017-07-02T07:26:07.666Z,100981.98
2017-07-02T07:28:34.187Z,100972.45
2017-07-02T07:31:00.559Z,100976.34
2017-07-02T07:33:27.012Z,100973.02
2017-07-02T07:35:53.478Z,100979.81
2017-07-02T07:38:20.065Z,100975.55
2017-07-02T07:40:46.419Z,100974.80
2017-07-02T07:43:15.825Z,100976.96
2017-07-02T07:45:43.336Z,100983.25
2017-07-02T07:48:13.639Z,100978.86
2017-07-02T07:50:41.439Z,100990.24
2017-07-02T07:53:07.804Z,100983.70
2017-07-02T07:55:34.238Z,100991.91
2017-07-02T07:58:00.643Z,100996.41
2017-07-02T08:00:27.111Z,100996.27
2017-07-02T08:02:53.477Z,100999.13
2017-07-02T08:05:19.823Z,100997.87
2017-07-02T08:07:46.223Z,100994.60
2017-07-02T08:10:12.627Z,101002.16
2017-07-02T08:12:39.004Z,101005.69
2017-07-02T08:15:05.364Z,101015.26
2017-07-02T08:17:31.734Z,101012.71
2017-07-02T08:19:58.075Z,101012.58
2017-07-02T08:22:24.451Z,101003.48
2017-07-02T08:27:32.193Z,101010.23
2017-07-02T08:29:58.578Z,101008.57
2017-07-02T08:32:24.961Z,101000.36
2017-07-02T08:34:51.329Z,101012.58
2017-07-02T08:37:17.689Z,101012.59
2017-07-02T08:39:44.038Z,101014.56
2017-07-02T08:42:10.393Z,101021.69
2017-07-02T08:44:36.771Z,101017.22
2017-07-02T08:47:03.134Z,101014.91
2017-07-02T08:49:29.517Z,101020.05
2017-07-02T08:51:55.860Z,101029.13
2017-07-02T08:54:22.188Z,101028.47
2017-07-02T08:56:48.544Z,101029.38
2017-07-02T08:59:14.910Z,101029.28
2017-07-02T09:01:41.243Z,101035.88
2017-07-02T09:04:07.617Z,101037.95
2017-07-02T09:06:33.997Z,101034.28
2017-07-02T09:09:01.368Z,101037.98
2017-07-02T09:11:27.729Z,101030.39
2017-07-02T09:13:54.138Z,101032.75
2017-07-02T09:16:20.507Z,101039.80
2017-07-02T09:18:46.885Z,101040.19
2017-07-02T09:21:13.262Z,101044.49
2017-07-02T09:23:39.603Z,101041.83
2017-07-02T09:26:08.110Z,101043.65
2017-07-02T09:28:34.567Z,101041.11
2017-07-02T09:31:01.043Z,101045.03
2017-07-02T09:33:27.429Z,101045.23
2017-07-02T09:35:53.823Z,101048.41
2017-07-02T09:38:20.542Z,101050.06
2017-07-02T09:40:46.952Z,101051.48
2017-07-02T09:43:13.346Z,101048.52
2017-07-02T09:45:39.753Z,101057.89
2017-07-02T09:48:06.117Z,101058.25
2017-07-02T09:50:32.499Z,101059.97
2017-07-02T09:52:58.927Z,101055.70
2017-07-02T09:55:25.333Z,101061.77
2017-07-02T09:57:51.783Z,101058.50
2017-07-02T10:00:18.218Z,101060.39
2017-07-02T10:02:44.665Z,101064.16
2017-07-02T10:05:11.106Z,101066.75
2017-07-02T10:07:37.505Z,101077.16
2017-07-02T10:10:04.054Z,101076.80
2017-07-02T10:12:30.501Z,101081.47
2017-07-02T10:14:56.993Z,101086.98
2017-07-02T10:17:23.383Z,101093.78
2017-07-02T10:19:49.755Z,101092.23
2017-07-02T10:22:17.054Z,101099.16
2017-07-02T10:24:43.410Z,101095.70
2017-07-02T10:27:09.779Z,101098.94
2017-07-02T10:29:36.153Z,101101.09
2017-07-02T10:32:02.551Z,101100.09
2017-07-02T10:34:28.942Z,101103.88
2017-07-02T10:36:55.306Z,101099.67
2017-07-02T10:39:21.691Z,101105.62
2017-07-02T10:41:48.063Z,101099.65
2017-07-02T10:44:14.434Z,101097.59
2017-07-02T10:46:40.827Z,101103.30
2017-07-02T10:49:07.196Z,101096.37
2017-07-02T10:51:33.556Z,101095.70
2017-07-02T10:53:59.923Z,101090.84
2017-07-02T10:56:26.284Z,101093.47
2017-07-02T10:58:52.636Z,101084.66
2017-07-02T11:01:18.997Z,101072.44
2017-07-02T11:03:45.354Z,101076.80
2017-07-02T11:06:11.725Z,101070.37
2017-07-02T11:08:38.088Z,101070.11
2017-07-02T11:11:04.442Z,101077.28
2017-07-02T11:13:30.778Z,101078.19
2017-07-02T11:15:57.151Z,101082.83
2017-07-02T11:18:26.962Z,101091.52
2017-07-02T11:20:53.467Z,101081.67
2017-07-02T11:23:19.811Z,101086.41
2017-07-02T11:25:46.185Z,101087.75
2017-07-02T11:28:12.528Z,101094.80
2017-07-02T11:30:38.864Z,101096.27
2017-07-02T11:33:05.227Z,101091.05
2017-07-02T11:35:31.569Z,101092.56
2017-07-02T11:37:57.947Z,101096.02
2017-07-02T11:40:24.288Z,101095.11
2017-07-02T11:42:50.634Z,101091.16
2017-07-02T11:45:17.010Z,101091.94
2017-07-02T11:47:43.350Z,101090.17
2017-07-02T11:50:09.702Z,101094.95
2017-07-02T11:52:36.078Z,101086.75
2017-07-02T11:55:02.412Z,101089.61
2017-07-02T11:57:28.743Z,101092.13
2017-07-02T11:59:55.094Z,101088.50
2017-07-02T12:02:21.452Z,101101.37
2017-07-02T12:04:47.807Z,101091.27
2017-07-02T12:07:14.167Z,101110.26
2017-07-02T12:09:40.519Z,101121.77
2017-07-02T12:12:06.915Z,101122.02
2017-07-02T12:14:33.280Z,101114.41
2017-07-02T12:16:59.648Z,101118.53
2017-07-02T12:19:26.113Z,101115.48
2017-07-02T12:21:53.086Z,101117.56
2017-07-02T12:24:19.523Z,101113.38
2017-07-02T12:26:46.005Z,101119.38
2017-07-02T12:29:12.402Z,101118.72
2017-07-02T12:31:38.803Z,101123.52
2017-07-02T12:34:05.267Z,101122.68
2017-07-02T12:36:31.670Z,101122.41
2017-07-02T12:38:58.771Z,101128.52
2017-07-02T12:41:25.734Z,101131.05
2017-07-02T12:43:52.193Z,101129.16
2017-07-02T12:46:18.595Z,101132.78
2017-07-02T12:48:44.981Z,101125.81
2017-07-02T12:51:11.384Z,101128.59
2017-07-02T12:53:37.723Z,101125.19
2017-07-02T12:56:04.062Z,101130.47
2017-07-02T12:58:30.377Z,101131.93
2017-07-02T13:00:56.707Z,101127.19
2017-07-02T13:03:23.038Z,101129.23
2017-07-02T13:05:49.374Z,101133.72
2017-07-02T13:08:15.722Z,101119.05
2017-07-02T13:10:42.086Z,101122.77
2017-07-02T13:13:08.439Z,101121.26
2017-07-02T13:15:34.782Z,101118.69
2017-07-02T13:18:01.141Z,101120.33
2017-07-02T13:20:27.479Z,101113.88
2017-07-02T13:22:53.893Z,101113.39
2017-07-02T13:25:20.246Z,101120.36
2017-07-02T13:27:46.625Z,101115.95
2017-07-02T13:30:13.009Z,101119.79
2017-07-02T13:32:39.371Z,101116.20
2017-07-02T13:35:05.785Z,101114.52
2017-07-02T13:37:32.250Z,101112.98
2017-07-02T13:39:58.624Z,101122.28
2017-07-02T13:42:24.998Z,101114.43
2017-07-02T13:44:51.330Z,101117.12
2017-07-02T13:47:17.715Z,101125.46
2017-07-02T13:49:44.044Z,101124.59
2017-07-02T13:52:10.403Z,101117.52
2017-07-02T13:54:36.731Z,101118.56
2017-07-02T13:57:03.086Z,101124.73
2017-07-02T13:59:29.392Z,101122.05
2017-07-02T14:01:55.763Z,101127.78
2017-07-02T14:04:22.112Z,101120.84
2017-07-02T14:06:48.475Z,101121.15
2017-07-02T14:09:14.834Z,101116.31
2017-07-02T14:11:41.179Z,101114.80
2017-07-02T14:14:07.557Z,101122.31
2017-07-02T14:16:44.538Z,101119.86
2017-07-02T14:19:10.914Z,101119.64
2017-07-02T14:21:37.273Z,101118.22
2017-07-02T14:24:03.629Z,101116.22
2017-07-02T14:26:29.976Z,101121.61
2017-07-02T14:28:56.440Z,101112.91
2017-07-02T14:31:23.046Z,101111.04
2017-07-02T14:33:49.450Z,101109.94
2017-07-02T14:36:15.862Z,101113.37
2017-07-02T14:38:42.229Z,101109.55
2017-07-02T14:41:08.574Z,101106.62
2017-07-02T14:43:34.948Z,101109.08
2017-07-02T14:46:01.362Z,101105.89
2017-07-02T14:48:33.605Z,101103.73
2017-07-02T14:51:00.033Z,101107.19
2017-07-02T14:53:26.446Z,101099.55
2017-07-02T14:55:52.853Z,101109.05
2017-07-02T14:58:19.242Z,101103.19
2017-07-02T15:00:45.645Z,101111.16
2017-07-02T15:03:12.028Z,101113.08
2017-07-02T15:05:38.397Z,101109.41
2017-07-02T15:08:04.779Z,101113.53
2017-07-02T15:10:31.158Z,101115.30
2017-07-02T15:12:57.511Z,101119.08
2017-07-02T15:15:23.863Z,101118.69
2017-07-02T15:17:50.250Z,101122.75
2017-07-02T15:20:16.665Z,101129.94
2017-07-02T15:22:43.055Z,101116.25
2017-07-02T15:25:17.670Z,101113.24
2017-07-02T15:27:44.023Z,101110.76
2017-07-02T15:30:10.374Z,101107.72
2017-07-02T15:32:36.760Z,101111.72
2017-07-02T15:35:03.116Z,101115.90
2017-07-02T15:37:29.787Z,101127.52
2017-07-02T15:39:56.234Z,101127.81
2017-07-02T15:42:22.623Z,101125.55
2017-07-02T15:44:49.219Z,101124.87
2017-07-02T15:47:15.688Z,101126.84
2017-07-02T15:49:42.308Z,101132.28
2017-07-02T15:52:08.720Z,101124.39
2017-07-02T15:54:35.150Z,101128.37
2017-07-02T15:57:01.526Z,101124.86
2017-07-02T15:59:27.905Z,101129.59
2017-07-02T16:01:54.253Z,101126.34
2017-07-02T16:04:20.950Z,101116.92
2017-07-02T16:06:47.674Z,101116.34
2017-07-02T16:09:14.079Z,101120.58
2017-07-02T16:11:40.459Z,101118.51
2017-07-02T16:14:06.851Z,101124.89
2017-07-02T16:16:33.220Z,101120.56
2017-07-02T16:18:59.552Z,101135.07
2017-07-02T16:21:25.943Z,101128.34
2017-07-02T16:23:52.628Z,101135.37
2017-07-02T16:26:19.034Z,101144.23
2017-07-02T16:28:45.420Z,101143.66
2017-07-02T16:31:11.811Z,101143.95
2017-07-02T16:33:38.210Z,101155.82
2017-07-02T16:36:04.713Z,101157.09
2017-07-02T16:38:31.092Z,101144.48
2017-07-02T16:40:58.485Z,101168.56
2017-07-02T16:43:24.960Z,101167.88
2017-07-02T16:45:51.382Z,101166.34
2017-07-02T16:48:17.959Z,101165.75
2017-07-02T16:50:44.336Z,101164.55
2017-07-02T16:53:10.689Z,101160.73
2017-07-02T16:55:37.087Z,101170.13
2017-07-02T16:58:03.490Z,101173.25
2017-07-02T17:00:29.872Z,101173.53
2017-07-02T17:02:56.220Z,101178.41
2017-07-02T17:05:22.604Z,101184.25
2017-07-02T17:07:48.967Z,101187.70
2017-07-02T17:10:15.332Z,101185.56
2017-07-02T17:12:41.716Z,101194.81
2017-07-02T17:15:08.073Z,101194.62
2017-07-02T17:17:34.445Z,101194.98
2017-07-02T17:20:00.855Z,101195.45
2017-07-02T17:22:27.251Z,101189.24
2017-07-02T17:24:55.633Z,101195.95
2017-07-02T17:27:22.015Z,101195.59
2017-07-02T17:29:48.424Z,101198.62
2017-07-02T17:32:14.818Z,101198.16
2017-07-02T17:34:41.189Z,101201.09
2017-07-02T17:37:07.538Z,101196.27
2017-07-02T17:39:33.892Z,101201.56
2017-07-02T17:42:04.467Z,101204.73
2017-07-02T17:44:30.937Z,101207.80
2017-07-02T17:46:57.402Z,101208.41
2017-07-02T17:49:24.505Z,101209.16
2017-07-02T17:51:50.994Z,101217.00
2017-07-02T17:54:18.135Z,101225.71
2017-07-02T17:56:44.728Z,101223.63
2017-07-02T17:59:11.611Z,101224.94
2017-07-02T18:01:38.660Z,101230.25
2017-07-02T18:04:05.903Z,101230.39
2017-07-02T18:06:32.577Z,101233.77
2017-07-02T18:08:59.453Z,101236.06
2017-07-02T18:11:26.507Z,101231.66
2017-07-02T18:13:52.973Z,101229.36
2017-07-02T18:16:19.386Z,101234.16
2017-07-02T18:18:46.233Z,101239.29
2017-07-02T18:21:12.625Z,101236.63
2017-07-02T18:23:39.413Z,101233.63
2017-07-02T18:26:05.803Z,101239.16
2017-07-02T18:28:32.170Z,101239.48
2017-07-02T18:30:58.517Z,101241.48
2017-07-02T18:33:24.866Z,101246.10
2017-07-02T18:35:51.836Z,101248.22
2017-07-02T18:38:18.410Z,101248.97
2017-07-02T18:40:44.794Z,101256.01
2017-07-02T18:43:11.189Z,101249.10
2017-07-02T18:45:37.545Z,101257.15
2017-07-02T18:48:03.946Z,101255.24
2017-07-02T18:50:30.330Z,101256.87
2017-07-02T18:52:56.730Z,101264.09
2017-07-02T18:55:23.117Z,101267.30
2017-07-02T18:57:49.506Z,101274.84
2017-07-02T19:00:15.935Z,101279.42
2017-07-02T19:02:42.332Z,101275.02
2017-07-02T19:05:08.719Z,101280.82
2017-07-02T19:07:35.066Z,101289.34
2017-07-02T19:10:01.457Z,101290.33
2017-07-02T19:12:27.925Z,101290.94
2017-07-02T19:14:54.391Z,101297.90
2017-07-02T19:17:20.813Z,101298.42
2017-07-02T19:19:47.211Z,101295.77
2017-07-02T19:22:13.585Z,101300.90
2017-07-02T19:24:39.956Z,101302.77
2017-07-02T19:27:06.340Z,101308.11
2017-07-02T19:29:32.693Z,101311.98
2017-07-02T19:31:59.107Z,101307.78
2017-07-02T19:34:25.492Z,101320.06
2017-07-02T19:36:51.836Z,101322.65
2017-07-02T19:39:18.188Z,101319.50
2017-07-02T19:41:44.656Z,101320.97
2017-07-02T19:44:11.019Z,101322.69
2017-07-02T19:46:37.395Z,101332.36
2017-07-02T19:49:03.746Z,101332.25
2017-07-02T19:51:30.126Z,101340.28
2017-07-02T19:53:56.491Z,101341.59
2017-07-02T19:56:22.839Z,101349.67
2017-07-02T19:58:49.219Z,101352.67
2017-07-02T20:01:15.623Z,101357.95
2017-07-02T20:03:41.995Z,101363.67
2017-07-02T20:06:13.130Z,101370.91
2017-07-02T20:08:39.616Z,101364.62
2017-07-02T20:11:05.966Z,101375.13
2017-07-02T20:13:32.350Z,101386.17
2017-07-02T20:15:58.759Z,101385.16
2017-07-02T20:18:25.104Z,101389.42
2017-07-02T20:20:57.262Z,101385.65
2017-07-02T20:23:23.593Z,101389.46
2017-07-02T20:25:50.048Z,101396.23
2017-07-02T20:28:16.476Z,101398.27
2017-07-02T20:30:42.851Z,101401.61
2017-07-02T20:33:09.261Z,101402.16
2017-07-02T20:35:36.120Z,101399.51
2017-07-02T20:38:02.536Z,101405.56
2017-07-02T20:40:30.007Z,101404.88
2017-07-02T20:42:56.429Z,101412.94
2017-07-02T20:45:22.803Z,101416.39
2017-07-02T20:47:49.170Z,101419.56
2017-07-02T20:50:15.580Z,101420.72
2017-07-02T20:52:41.965Z,101421.19
2017-07-02T20:55:08.319Z,101420.48
2017-07-02T20:57:34.795Z,101418.10
2017-07-02T21:00:01.159Z,101412.59
2017-07-02T21:02:27.521Z,101418.20
2017-07-02T21:04:56.789Z,101424.72
2017-07-02T21:07:23.255Z,101418.19
2017-07-02T21:09:49.972Z,101421.48
2017-07-02T21:12:30.717Z,101422.45
2017-07-02T21:14:57.052Z,101427.88
2017-07-02T21:17:23.394Z,101424.34
2017-07-02T21:19:53.608Z,101425.20
2017-07-02T21:22:20.061Z,101427.19
2017-07-02T21:24:47.450Z,101432.91
2017-07-02T21:27:13.926Z,101434.27
2017-07-02T21:29:40.772Z,101432.81
2017-07-02T21:32:07.154Z,101436.25
2017-07-02T21:34:33.750Z,101437.16
2017-07-02T21:37:00.904Z,101450.53
2017-07-02T21:39:27.288Z,101454.97
2017-07-02T21:41:53.632Z,101454.40
2017-07-02T21:44:19.955Z,101461.11
2017-07-02T21:46:46.320Z,101463.09
2017-07-02T21:49:12.797Z,101469.14
2017-07-02T21:51:39.802Z,101463.52
2017-07-02T21:54:06.210Z,101469.64
2017-07-02T21:56:32.854Z,101472.03
2017-07-02T21:58:59.208Z,101473.45
2017-07-02T22:01:25.610Z,101474.11
2017-07-02T22:03:51.959Z,101479.20
2017-07-02T22:06:18.314Z,101478.11
2017-07-02T22:08:51.022Z,101480.30
2017-07-02T22:11:17.391Z,101484.23
2017-07-02T22:13:44.094Z,101484.98
2017-07-02T22:16:10.483Z,101484.67
2017-07-02T22:18:36.902Z,101486.83
2017-07-02T22:21:03.924Z,101483.36
2017-07-02T22:23:30.597Z,101487.65
2017-07-02T22:25:56.967Z,101491.17
2017-07-02T22:28:23.332Z,101493.75
2017-07-02T22:30:49.676Z,101491.43
2017-07-02T22:33:16.065Z,101497.42
2017-07-02T22:35:42.461Z,101502.47
2017-07-02T22:38:08.849Z,101500.92
2017-07-02T22:40:35.211Z,101500.23
2017-07-02T22:43:01.589Z,101500.17
2017-07-02T22:45:28.425Z,101505.50
2017-07-02T22:47:54.844Z,101509.23
2017-07-02T22:50:21.176Z,101506.42
2017-07-02T22:52:47.496Z,101505.56
2017-07-02T22:55:13.852Z,101509.95
2017-07-02T22:57:40.239Z,101506.82
2017-07-02T23:00:06.588Z,101500.68
2017-07-02T23:02:32.936Z,101513.45
2017-07-02T23:04:59.292Z,101510.95
2017-07-02T23:07:25.696Z,101510.38
2017-07-02T23:09:52.020Z,101512.71
2017-07-02T23:12:18.389Z,101514.00
2017-07-02T23:14:44.732Z,101524.56
2017-07-02T23:17:11.059Z,101527.83
2017-07-02T23:19:37.422Z,101525.81
2017-07-02T23:22:03.828Z,101527.59
2017-07-02T23:24:30.392Z,101522.69
2017-07-02T23:26:56.746Z,101519.27
2017-07-02T23:29:24.120Z,101527.02
2017-07-02T23:31:50.688Z,101530.73
2017-07-02T23:34:17.103Z,101523.05
2017-07-02T23:36:43.458Z,101524.94
2017-07-02T23:39:09.864Z,101527.74
2017-07-02T23:41:36.266Z,101522.48
2017-07-02T23:44:05.169Z,101526.09
2017-07-02T23:46:31.564Z,101532.77
2017-07-02T23:48:57.938Z,101535.97
2017-07-02T23:51:24.431Z,101537.38
2017-07-02T23:53:50.781Z,101528.97
2017-07-02T23:56:17.161Z,101529.69
2017-07-02T23:58:43.501Z,101528.11
